sensor_id;sensor_type;location;lat;lon;timestamp;P1;durP1;ratioP1;P2;durP2;ratioP2
58990;SDS011;44781;53.444;14.476;2023-09-08T00:01:18;10.60;;;8.30;;
58990;SDS011;44781;53.444;14.476;2023-09-08T00:03:45;9.60;;;8.40;;
58990;SDS011;44781;53.444;14.476;2023-09-08T00:06:12;11.00;;;8.90;;
58990;SDS011;44781;53.444;14.476;2023-09-08T00:08:39;11.50;;;8.90;;
58990;SDS011;44781;53.444;14.476;2023-09-08T00:11:06;10.00;;;7.90;;
58990;SDS011;44781;53.444;14.476;2023-09-08T00:13:36;12.90;;;9.20;;
58990;SDS011;44781;53.444;14.476;2023-09-08T00:16:03;10.80;;;8.50;;
58990;SDS011;44781;53.444;14.476;2023-09-08T00:18:29;11.00;;;8.20;;
58990;SDS011;44781;53.444;14.476;2023-09-08T00:20:56;11.80;;;9.30;;
58990;SDS011;44781;53.444;14.476;2023-09-08T00:24:04;11.80;;;10.10;;
58990;SDS011;44781;53.444;14.476;2023-09-08T00:26:32;10.70;;;9.40;;
58990;SDS011;44781;53.444;14.476;2023-09-08T00:28:59;11.50;;;9.70;;
58990;SDS011;44781;53.444;14.476;2023-09-08T00:31:26;10.70;;;9.40;;
58990;SDS011;44781;53.444;14.476;2023-09-08T00:33:52;10.90;;;8.80;;
58990;SDS011;44781;53.444;14.476;2023-09-08T00:36:19;11.30;;;8.90;;
58990;SDS011;44781;53.444;14.476;2023-09-08T00:38:46;10.90;;;8.60;;
58990;SDS011;44781;53.444;14.476;2023-09-08T00:41:13;10.10;;;8.60;;
58990;SDS011;44781;53.444;14.476;2023-09-08T00:43:39;11.20;;;9.10;;
58990;SDS011;44781;53.444;14.476;2023-09-08T00:46:06;11.30;;;8.70;;
58990;SDS011;44781;53.444;14.476;2023-09-08T00:48:34;10.90;;;8.80;;
58990;SDS011;44781;53.444;14.476;2023-09-08T00:51:13;10.50;;;8.70;;
58990;SDS011;44781;53.444;14.476;2023-09-08T00:53:42;11.10;;;8.40;;
58990;SDS011;44781;53.444;14.476;2023-09-08T00:56:09;10.40;;;9.00;;
58990;SDS011;44781;53.444;14.476;2023-09-08T00:58:38;11.50;;;9.50;;
58990;SDS011;44781;53.444;14.476;2023-09-08T01:01:05;10.90;;;8.70;;
58990;SDS011;44781;53.444;14.476;2023-09-08T01:03:32;10.80;;;9.30;;
58990;SDS011;44781;53.444;14.476;2023-09-08T01:06:01;12.00;;;9.00;;
58990;SDS011;44781;53.444;14.476;2023-09-08T01:08:29;11.70;;;9.10;;
58990;SDS011;44781;53.444;14.476;2023-09-08T01:10:56;11.30;;;9.70;;
58990;SDS011;44781;53.444;14.476;2023-09-08T01:13:27;10.40;;;8.90;;
58990;SDS011;44781;53.444;14.476;2023-09-08T01:15:53;10.50;;;8.80;;
58990;SDS011;44781;53.444;14.476;2023-09-08T01:18:21;13.00;;;9.20;;
58990;SDS011;44781;53.444;14.476;2023-09-08T01:20:55;11.20;;;8.90;;
58990;SDS011;44781;53.444;14.476;2023-09-08T01:26:08;11.60;;;9.30;;
58990;SDS011;44781;53.444;14.476;2023-09-08T01:28:42;10.70;;;8.80;;
58990;SDS011;44781;53.444;14.476;2023-09-08T01:31:12;12.60;;;9.70;;
58990;SDS011;44781;53.444;14.476;2023-09-08T01:33:39;10.90;;;9.20;;
58990;SDS011;44781;53.444;14.476;2023-09-08T01:36:08;9.60;;;8.60;;
58990;SDS011;44781;53.444;14.476;2023-09-08T01:38:35;11.40;;;9.30;;
58990;SDS011;44781;53.444;14.476;2023-09-08T01:41:02;11.40;;;8.90;;
58990;SDS011;44781;53.444;14.476;2023-09-08T01:43:29;11.20;;;9.20;;
58990;SDS011;44781;53.444;14.476;2023-09-08T01:45:56;10.70;;;8.90;;
58990;SDS011;44781;53.444;14.476;2023-09-08T01:48:23;10.70;;;8.50;;
58990;SDS011;44781;53.444;14.476;2023-09-08T01:50:50;12.90;;;9.50;;
58990;SDS011;44781;53.444;14.476;2023-09-08T01:53:18;11.70;;;8.90;;
58990;SDS011;44781;53.444;14.476;2023-09-08T01:55:45;10.80;;;9.10;;
58990;SDS011;44781;53.444;14.476;2023-09-08T01:58:12;9.70;;;8.70;;
58990;SDS011;44781;53.444;14.476;2023-09-08T02:00:39;10.50;;;8.70;;
58990;SDS011;44781;53.444;14.476;2023-09-08T02:03:07;11.60;;;8.80;;
58990;SDS011;44781;53.444;14.476;2023-09-08T02:05:34;10.90;;;9.00;;
58990;SDS011;44781;53.444;14.476;2023-09-08T02:08:05;11.30;;;9.60;;
58990;SDS011;44781;53.444;14.476;2023-09-08T02:10:33;11.60;;;9.20;;
58990;SDS011;44781;53.444;14.476;2023-09-08T02:13:00;10.40;;;8.60;;
58990;SDS011;44781;53.444;14.476;2023-09-08T02:15:27;10.70;;;8.50;;
58990;SDS011;44781;53.444;14.476;2023-09-08T02:17:55;11.50;;;8.40;;
58990;SDS011;44781;53.444;14.476;2023-09-08T02:20:23;10.60;;;9.00;;
58990;SDS011;44781;53.444;14.476;2023-09-08T02:22:54;11.00;;;9.30;;
58990;SDS011;44781;53.444;14.476;2023-09-08T02:25:25;12.70;;;9.80;;
58990;SDS011;44781;53.444;14.476;2023-09-08T02:27:52;10.50;;;8.70;;
58990;SDS011;44781;53.444;14.476;2023-09-08T02:30:19;11.90;;;8.90;;
58990;SDS011;44781;53.444;14.476;2023-09-08T02:32:46;11.60;;;9.60;;
58990;SDS011;44781;53.444;14.476;2023-09-08T02:35:14;11.40;;;9.20;;
58990;SDS011;44781;53.444;14.476;2023-09-08T02:37:40;10.10;;;8.30;;
58990;SDS011;44781;53.444;14.476;2023-09-08T02:40:08;10.80;;;8.80;;
58990;SDS011;44781;53.444;14.476;2023-09-08T02:42:36;9.70;;;8.70;;
58990;SDS011;44781;53.444;14.476;2023-09-08T02:45:03;11.90;;;9.40;;
58990;SDS011;44781;53.444;14.476;2023-09-08T02:47:30;10.70;;;9.60;;
58990;SDS011;44781;53.444;14.476;2023-09-08T02:49:58;11.50;;;9.50;;
58990;SDS011;44781;53.444;14.476;2023-09-08T02:52:25;11.70;;;10.00;;
58990;SDS011;44781;53.444;14.476;2023-09-08T02:57:22;12.30;;;10.10;;
58990;SDS011;44781;53.444;14.476;2023-09-08T02:59:50;11.50;;;9.70;;
58990;SDS011;44781;53.444;14.476;2023-09-08T03:02:26;12.20;;;10.50;;
58990;SDS011;44781;53.444;14.476;2023-09-08T03:04:53;13.30;;;9.30;;
58990;SDS011;44781;53.444;14.476;2023-09-08T03:07:21;12.40;;;9.30;;
58990;SDS011;44781;53.444;14.476;2023-09-08T03:09:48;12.50;;;9.90;;
58990;SDS011;44781;53.444;14.476;2023-09-08T03:12:15;11.10;;;9.30;;
58990;SDS011;44781;53.444;14.476;2023-09-08T03:14:43;12.70;;;10.30;;
58990;SDS011;44781;53.444;14.476;2023-09-08T03:17:10;13.00;;;10.40;;
58990;SDS011;44781;53.444;14.476;2023-09-08T03:19:38;12.80;;;10.20;;
58990;SDS011;44781;53.444;14.476;2023-09-08T03:22:07;12.00;;;10.20;;
58990;SDS011;44781;53.444;14.476;2023-09-08T03:24:34;12.70;;;10.90;;
58990;SDS011;44781;53.444;14.476;2023-09-08T03:27:01;12.10;;;10.50;;
58990;SDS011;44781;53.444;14.476;2023-09-08T03:29:29;14.40;;;11.00;;
58990;SDS011;44781;53.444;14.476;2023-09-08T03:31:56;12.90;;;11.00;;
58990;SDS011;44781;53.444;14.476;2023-09-08T03:34:23;12.90;;;10.90;;
58990;SDS011;44781;53.444;14.476;2023-09-08T03:36:51;14.10;;;11.40;;
58990;SDS011;44781;53.444;14.476;2023-09-08T03:39:21;12.10;;;10.50;;
58990;SDS011;44781;53.444;14.476;2023-09-08T03:41:47;13.10;;;10.60;;
58990;SDS011;44781;53.444;14.476;2023-09-08T03:44:14;12.40;;;10.40;;
58990;SDS011;44781;53.444;14.476;2023-09-08T03:46:41;12.60;;;11.00;;
58990;SDS011;44781;53.444;14.476;2023-09-08T03:49:09;12.20;;;10.30;;
58990;SDS011;44781;53.444;14.476;2023-09-08T03:51:36;12.90;;;10.30;;
58990;SDS011;44781;53.444;14.476;2023-09-08T03:54:03;12.80;;;10.10;;
58990;SDS011;44781;53.444;14.476;2023-09-08T03:56:30;12.20;;;10.90;;
58990;SDS011;44781;53.444;14.476;2023-09-08T03:58:57;12.40;;;10.10;;
58990;SDS011;44781;53.444;14.476;2023-09-08T04:01:24;11.60;;;10.00;;
58990;SDS011;44781;53.444;14.476;2023-09-08T04:03:52;12.90;;;10.50;;
58990;SDS011;44781;53.444;14.476;2023-09-08T04:06:19;11.30;;;9.90;;
58990;SDS011;44781;53.444;14.476;2023-09-08T04:08:46;11.20;;;9.50;;
58990;SDS011;44781;53.444;14.476;2023-09-08T04:11:13;11.20;;;8.90;;
58990;SDS011;44781;53.444;14.476;2023-09-08T04:13:40;10.80;;;9.00;;
58990;SDS011;44781;53.444;14.476;2023-09-08T04:16:08;10.70;;;9.40;;
58990;SDS011;44781;53.444;14.476;2023-09-08T04:18:35;12.10;;;9.70;;
58990;SDS011;44781;53.444;14.476;2023-09-08T04:21:03;11.50;;;9.50;;
58990;SDS011;44781;53.444;14.476;2023-09-08T04:23:30;11.90;;;9.60;;
58990;SDS011;44781;53.444;14.476;2023-09-08T04:26:00;13.40;;;10.00;;
58990;SDS011;44781;53.444;14.476;2023-09-08T04:28:28;12.40;;;9.90;;
58990;SDS011;44781;53.444;14.476;2023-09-08T04:30:55;11.20;;;9.10;;
58990;SDS011;44781;53.444;14.476;2023-09-08T04:33:23;10.70;;;9.20;;
58990;SDS011;44781;53.444;14.476;2023-09-08T04:35:51;10.50;;;8.70;;
58990;SDS011;44781;53.444;14.476;2023-09-08T04:38:17;10.40;;;8.60;;
58990;SDS011;44781;53.444;14.476;2023-09-08T04:40:45;10.70;;;8.80;;
58990;SDS011;44781;53.444;14.476;2023-09-08T04:43:13;11.70;;;9.50;;
58990;SDS011;44781;53.444;14.476;2023-09-08T04:45:46;10.70;;;9.50;;
58990;SDS011;44781;53.444;14.476;2023-09-08T04:48:13;11.50;;;10.30;;
58990;SDS011;44781;53.444;14.476;2023-09-08T04:50:40;12.20;;;10.60;;
58990;SDS011;44781;53.444;14.476;2023-09-08T04:53:08;12.60;;;10.50;;
58990;SDS011;44781;53.444;14.476;2023-09-08T04:55:34;12.90;;;10.60;;
58990;SDS011;44781;53.444;14.476;2023-09-08T04:58:01;13.00;;;10.50;;
58990;SDS011;44781;53.444;14.476;2023-09-08T05:00:29;13.90;;;11.40;;
58990;SDS011;44781;53.444;14.476;2023-09-08T05:02:56;12.40;;;10.90;;
58990;SDS011;44781;53.444;14.476;2023-09-08T05:05:23;13.50;;;11.60;;
58990;SDS011;44781;53.444;14.476;2023-09-08T05:07:50;13.50;;;11.30;;
58990;SDS011;44781;53.444;14.476;2023-09-08T05:10:20;13.80;;;11.60;;
58990;SDS011;44781;53.444;14.476;2023-09-08T05:12:47;14.50;;;12.20;;
58990;SDS011;44781;53.444;14.476;2023-09-08T05:15:14;14.30;;;11.80;;
58990;SDS011;44781;53.444;14.476;2023-09-08T05:17:45;12.60;;;10.70;;
58990;SDS011;44781;53.444;14.476;2023-09-08T05:20:13;13.40;;;11.90;;
58990;SDS011;44781;53.444;14.476;2023-09-08T05:22:41;14.00;;;12.40;;
58990;SDS011;44781;53.444;14.476;2023-09-08T05:25:08;17.50;;;12.50;;
58990;SDS011;44781;53.444;14.476;2023-09-08T05:27:35;16.80;;;12.30;;
58990;SDS011;44781;53.444;14.476;2023-09-08T05:30:03;18.80;;;12.80;;
58990;SDS011;44781;53.444;14.476;2023-09-08T05:32:31;15.10;;;11.70;;
58990;SDS011;44781;53.444;14.476;2023-09-08T05:34:59;14.70;;;12.40;;
58990;SDS011;44781;53.444;14.476;2023-09-08T05:37:26;14.60;;;12.60;;
58990;SDS011;44781;53.444;14.476;2023-09-08T05:39:53;14.30;;;12.70;;
58990;SDS011;44781;53.444;14.476;2023-09-08T05:42:20;14.70;;;13.10;;
58990;SDS011;44781;53.444;14.476;2023-09-08T05:44:47;13.10;;;11.60;;
58990;SDS011;44781;53.444;14.476;2023-09-08T05:47:16;15.40;;;13.40;;
58990;SDS011;44781;53.444;14.476;2023-09-08T05:49:46;14.70;;;13.20;;
58990;SDS011;44781;53.444;14.476;2023-09-08T05:52:13;15.70;;;12.90;;
58990;SDS011;44781;53.444;14.476;2023-09-08T05:54:41;16.00;;;12.80;;
58990;SDS011;44781;53.444;14.476;2023-09-08T05:57:08;15.50;;;12.40;;
58990;SDS011;44781;53.444;14.476;2023-09-08T05:59:35;13.80;;;12.20;;
58990;SDS011;44781;53.444;14.476;2023-09-08T06:02:02;14.90;;;13.00;;
58990;SDS011;44781;53.444;14.476;2023-09-08T06:04:29;15.60;;;12.50;;
58990;SDS011;44781;53.444;14.476;2023-09-08T06:06:59;15.70;;;12.00;;
58990;SDS011;44781;53.444;14.476;2023-09-08T06:09:26;15.40;;;12.40;;
58990;SDS011;44781;53.444;14.476;2023-09-08T06:11:54;16.20;;;12.80;;
58990;SDS011;44781;53.444;14.476;2023-09-08T06:14:21;17.60;;;12.10;;
58990;SDS011;44781;53.444;14.476;2023-09-08T06:16:48;17.60;;;12.50;;
58990;SDS011;44781;53.444;14.476;2023-09-08T06:19:15;14.00;;;11.50;;
58990;SDS011;44781;53.444;14.476;2023-09-08T06:21:42;13.00;;;10.90;;
58990;SDS011;44781;53.444;14.476;2023-09-08T06:24:09;17.00;;;11.80;;
58990;SDS011;44781;53.444;14.476;2023-09-08T06:26:37;15.10;;;12.00;;
58990;SDS011;44781;53.444;14.476;2023-09-08T06:29:04;13.70;;;11.80;;
58990;SDS011;44781;53.444;14.476;2023-09-08T06:31:30;14.00;;;12.20;;
58990;SDS011;44781;53.444;14.476;2023-09-08T06:33:57;13.70;;;11.80;;
58990;SDS011;44781;53.444;14.476;2023-09-08T06:36:24;13.20;;;11.00;;
58990;SDS011;44781;53.444;14.476;2023-09-08T06:38:52;13.70;;;11.30;;
58990;SDS011;44781;53.444;14.476;2023-09-08T06:41:22;14.50;;;11.60;;
58990;SDS011;44781;53.444;14.476;2023-09-08T06:44:00;15.60;;;12.40;;
58990;SDS011;44781;53.444;14.476;2023-09-08T06:46:31;15.80;;;12.20;;
58990;SDS011;44781;53.444;14.476;2023-09-08T06:48:58;13.80;;;11.40;;
58990;SDS011;44781;53.444;14.476;2023-09-08T06:51:26;14.90;;;12.10;;
58990;SDS011;44781;53.444;14.476;2023-09-08T06:53:57;13.70;;;11.10;;
58990;SDS011;44781;53.444;14.476;2023-09-08T06:56:29;14.00;;;12.10;;
58990;SDS011;44781;53.444;14.476;2023-09-08T06:58:57;16.10;;;11.70;;
58990;SDS011;44781;53.444;14.476;2023-09-08T07:01:24;14.90;;;11.90;;
58990;SDS011;44781;53.444;14.476;2023-09-08T07:03:52;12.40;;;10.20;;
58990;SDS011;44781;53.444;14.476;2023-09-08T07:06:19;13.90;;;10.90;;
58990;SDS011;44781;53.444;14.476;2023-09-08T07:08:49;21.30;;;11.80;;
58990;SDS011;44781;53.444;14.476;2023-09-08T07:11:17;21.20;;;10.50;;
58990;SDS011;44781;53.444;14.476;2023-09-08T07:13:44;14.50;;;10.20;;
58990;SDS011;44781;53.444;14.476;2023-09-08T07:16:11;13.30;;;10.20;;
58990;SDS011;44781;53.444;14.476;2023-09-08T07:18:39;13.80;;;10.20;;
58990;SDS011;44781;53.444;14.476;2023-09-08T07:21:07;13.00;;;9.90;;
58990;SDS011;44781;53.444;14.476;2023-09-08T07:23:34;15.50;;;10.00;;
58990;SDS011;44781;53.444;14.476;2023-09-08T07:26:03;13.90;;;10.90;;
58990;SDS011;44781;53.444;14.476;2023-09-08T07:28:31;12.90;;;10.50;;
58990;SDS011;44781;53.444;14.476;2023-09-08T07:31:01;15.90;;;10.70;;
58990;SDS011;44781;53.444;14.476;2023-09-08T07:33:30;15.20;;;10.90;;
58990;SDS011;44781;53.444;14.476;2023-09-08T07:35:57;13.40;;;10.30;;
58990;SDS011;44781;53.444;14.476;2023-09-08T07:38:31;12.40;;;9.50;;
58990;SDS011;44781;53.444;14.476;2023-09-08T07:41:00;12.80;;;9.50;;
58990;SDS011;44781;53.444;14.476;2023-09-08T07:43:30;12.90;;;9.20;;
58990;SDS011;44781;53.444;14.476;2023-09-08T07:48:59;10.70;;;9.20;;
58990;SDS011;44781;53.444;14.476;2023-09-08T07:51:26;11.80;;;9.30;;
58990;SDS011;44781;53.444;14.476;2023-09-08T07:53:57;12.80;;;9.10;;
58990;SDS011;44781;53.444;14.476;2023-09-08T07:56:24;12.50;;;9.30;;
58990;SDS011;44781;53.444;14.476;2023-09-08T07:58:51;13.20;;;10.00;;
58990;SDS011;44781;53.444;14.476;2023-09-08T08:01:18;13.20;;;9.20;;
58990;SDS011;44781;53.444;14.476;2023-09-08T08:03:45;11.90;;;9.40;;
58990;SDS011;44781;53.444;14.476;2023-09-08T08:06:12;11.20;;;9.10;;
58990;SDS011;44781;53.444;14.476;2023-09-08T08:08:40;12.10;;;9.20;;
58990;SDS011;44781;53.444;14.476;2023-09-08T08:11:14;13.80;;;9.10;;
58990;SDS011;44781;53.444;14.476;2023-09-08T08:14:01;11.80;;;9.20;;
58990;SDS011;44781;53.444;14.476;2023-09-08T08:16:28;12.50;;;8.30;;
58990;SDS011;44781;53.444;14.476;2023-09-08T08:18:56;13.90;;;8.50;;
58990;SDS011;44781;53.444;14.476;2023-09-08T08:21:23;11.10;;;7.90;;
58990;SDS011;44781;53.444;14.476;2023-09-08T08:23:50;13.40;;;9.20;;
58990;SDS011;44781;53.444;14.476;2023-09-08T08:26:18;10.30;;;7.70;;
58990;SDS011;44781;53.444;14.476;2023-09-08T08:28:45;11.70;;;8.00;;
58990;SDS011;44781;53.444;14.476;2023-09-08T08:31:16;12.20;;;8.90;;
58990;SDS011;44781;53.444;14.476;2023-09-08T08:33:44;11.70;;;8.10;;
58990;SDS011;44781;53.444;14.476;2023-09-08T08:36:11;12.90;;;8.20;;
58990;SDS011;44781;53.444;14.476;2023-09-08T08:38:42;12.60;;;8.30;;
58990;SDS011;44781;53.444;14.476;2023-09-08T08:41:15;9.90;;;7.30;;
58990;SDS011;44781;53.444;14.476;2023-09-08T08:43:53;11.90;;;7.20;;
58990;SDS011;44781;53.444;14.476;2023-09-08T08:46:25;9.60;;;6.70;;
58990;SDS011;44781;53.444;14.476;2023-09-08T08:48:56;11.00;;;7.00;;
58990;SDS011;44781;53.444;14.476;2023-09-08T08:51:25;17.80;;;7.60;;
58990;SDS011;44781;53.444;14.476;2023-09-08T08:53:57;10.50;;;6.40;;
58990;SDS011;44781;53.444;14.476;2023-09-08T08:56:44;9.80;;;6.50;;
58990;SDS011;44781;53.444;14.476;2023-09-08T08:59:16;8.80;;;6.70;;
58990;SDS011;44781;53.444;14.476;2023-09-08T09:01:51;9.60;;;6.80;;
58990;SDS011;44781;53.444;14.476;2023-09-08T09:04:19;9.30;;;6.50;;
58990;SDS011;44781;53.444;14.476;2023-09-08T09:06:48;11.50;;;7.10;;
58990;SDS011;44781;53.444;14.476;2023-09-08T09:09:19;12.40;;;7.40;;
58990;SDS011;44781;53.444;14.476;2023-09-08T09:11:49;9.30;;;6.40;;
58990;SDS011;44781;53.444;14.476;2023-09-08T09:14:54;11.10;;;7.00;;
58990;SDS011;44781;53.444;14.476;2023-09-08T09:18:34;12.10;;;7.30;;
58990;SDS011;44781;53.444;14.476;2023-09-08T09:21:08;9.80;;;6.00;;
58990;SDS011;44781;53.444;14.476;2023-09-08T09:23:39;12.90;;;6.80;;
58990;SDS011;44781;53.444;14.476;2023-09-08T09:26:25;9.30;;;6.20;;
58990;SDS011;44781;53.444;14.476;2023-09-08T09:28:56;9.80;;;6.50;;
58990;SDS011;44781;53.444;14.476;2023-09-08T09:31:27;10.40;;;6.80;;
58990;SDS011;44781;53.444;14.476;2023-09-08T09:34:12;9.90;;;6.80;;
58990;SDS011;44781;53.444;14.476;2023-09-08T09:36:46;10.30;;;6.30;;
58990;SDS011;44781;53.444;14.476;2023-09-08T09:39:21;9.40;;;5.80;;
58990;SDS011;44781;53.444;14.476;2023-09-08T09:41:54;7.80;;;5.00;;
58990;SDS011;44781;53.444;14.476;2023-09-08T09:44:23;9.10;;;5.60;;
58990;SDS011;44781;53.444;14.476;2023-09-08T09:46:52;7.60;;;5.50;;
58990;SDS011;44781;53.444;14.476;2023-09-08T09:49:22;8.00;;;5.00;;
58990;SDS011;44781;53.444;14.476;2023-09-08T09:51:56;9.10;;;4.90;;
58990;SDS011;44781;53.444;14.476;2023-09-08T09:54:24;8.90;;;5.20;;
58990;SDS011;44781;53.444;14.476;2023-09-08T09:56:52;7.90;;;5.40;;
58990;SDS011;44781;53.444;14.476;2023-09-08T09:59:19;7.70;;;5.00;;
58990;SDS011;44781;53.444;14.476;2023-09-08T10:01:48;6.80;;;4.60;;
58990;SDS011;44781;53.444;14.476;2023-09-08T10:04:16;7.20;;;4.80;;
58990;SDS011;44781;53.444;14.476;2023-09-08T10:06:45;7.40;;;5.40;;
58990;SDS011;44781;53.444;14.476;2023-09-08T10:09:15;7.60;;;5.20;;
58990;SDS011;44781;53.444;14.476;2023-09-08T10:11:54;7.10;;;5.10;;
58990;SDS011;44781;53.444;14.476;2023-09-08T10:14:22;9.30;;;5.30;;
58990;SDS011;44781;53.444;14.476;2023-09-08T10:16:52;8.90;;;5.40;;
58990;SDS011;44781;53.444;14.476;2023-09-08T10:19:25;8.20;;;5.30;;
58990;SDS011;44781;53.444;14.476;2023-09-08T10:22:00;8.40;;;5.50;;
58990;SDS011;44781;53.444;14.476;2023-09-08T10:24:32;7.10;;;5.30;;
58990;SDS011;44781;53.444;14.476;2023-09-08T10:27:05;7.40;;;5.40;;
58990;SDS011;44781;53.444;14.476;2023-09-08T10:29:42;7.30;;;5.10;;
58990;SDS011;44781;53.444;14.476;2023-09-08T10:32:09;6.80;;;4.80;;
58990;SDS011;44781;53.444;14.476;2023-09-08T10:34:37;7.30;;;5.00;;
58990;SDS011;44781;53.444;14.476;2023-09-08T10:37:22;7.60;;;4.50;;
58990;SDS011;44781;53.444;14.476;2023-09-08T10:39:56;7.30;;;4.60;;
58990;SDS011;44781;53.444;14.476;2023-09-08T10:42:43;7.20;;;4.10;;
58990;SDS011;44781;53.444;14.476;2023-09-08T10:45:17;8.30;;;4.30;;
58990;SDS011;44781;53.444;14.476;2023-09-08T10:50:19;6.50;;;4.00;;
58990;SDS011;44781;53.444;14.476;2023-09-08T10:55:55;6.80;;;3.90;;
58990;SDS011;44781;53.444;14.476;2023-09-08T11:01:02;7.60;;;3.90;;
58990;SDS011;44781;53.444;14.476;2023-09-08T11:06:17;7.30;;;4.20;;
58990;SDS011;44781;53.444;14.476;2023-09-08T11:08:46;7.50;;;3.90;;
58990;SDS011;44781;53.444;14.476;2023-09-08T11:11:15;6.40;;;3.70;;
58990;SDS011;44781;53.444;14.476;2023-09-08T11:13:49;6.90;;;4.10;;
58990;SDS011;44781;53.444;14.476;2023-09-08T11:16:16;6.50;;;4.30;;
58990;SDS011;44781;53.444;14.476;2023-09-08T11:18:50;6.40;;;3.90;;
58990;SDS011;44781;53.444;14.476;2023-09-08T11:21:20;6.40;;;4.00;;
58990;SDS011;44781;53.444;14.476;2023-09-08T11:23:48;7.30;;;3.80;;
58990;SDS011;44781;53.444;14.476;2023-09-08T11:26:15;6.60;;;4.10;;
58990;SDS011;44781;53.444;14.476;2023-09-08T11:28:43;6.10;;;3.80;;
58990;SDS011;44781;53.444;14.476;2023-09-08T11:31:12;6.50;;;4.30;;
58990;SDS011;44781;53.444;14.476;2023-09-08T11:33:40;7.00;;;4.10;;
58990;SDS011;44781;53.444;14.476;2023-09-08T11:36:12;8.30;;;4.00;;
58990;SDS011;44781;53.444;14.476;2023-09-08T11:38:43;8.20;;;5.50;;
58990;SDS011;44781;53.444;14.476;2023-09-08T11:41:11;6.60;;;4.10;;
58990;SDS011;44781;53.444;14.476;2023-09-08T11:43:41;7.40;;;4.00;;
58990;SDS011;44781;53.444;14.476;2023-09-08T11:46:09;6.30;;;3.80;;
58990;SDS011;44781;53.444;14.476;2023-09-08T11:48:37;5.50;;;3.80;;
58990;SDS011;44781;53.444;14.476;2023-09-08T11:51:08;7.00;;;4.00;;
58990;SDS011;44781;53.444;14.476;2023-09-08T11:53:44;7.40;;;4.10;;
58990;SDS011;44781;53.444;14.476;2023-09-08T11:56:11;7.10;;;4.10;;
58990;SDS011;44781;53.444;14.476;2023-09-08T11:58:41;6.50;;;4.30;;
58990;SDS011;44781;53.444;14.476;2023-09-08T12:01:10;6.70;;;4.20;;
58990;SDS011;44781;53.444;14.476;2023-09-08T12:03:50;6.60;;;4.10;;
58990;SDS011;44781;53.444;14.476;2023-09-08T12:06:27;11.10;;;4.50;;
58990;SDS011;44781;53.444;14.476;2023-09-08T12:08:55;7.40;;;3.80;;
58990;SDS011;44781;53.444;14.476;2023-09-08T12:11:35;6.80;;;3.80;;
58990;SDS011;44781;53.444;14.476;2023-09-08T12:14:08;6.70;;;4.40;;
58990;SDS011;44781;53.444;14.476;2023-09-08T12:16:37;7.20;;;3.80;;
58990;SDS011;44781;53.444;14.476;2023-09-08T12:19:05;6.70;;;4.00;;
58990;SDS011;44781;53.444;14.476;2023-09-08T12:21:53;8.20;;;4.40;;
58990;SDS011;44781;53.444;14.476;2023-09-08T12:27:20;6.10;;;4.10;;
58990;SDS011;44781;53.444;14.476;2023-09-08T12:29:54;6.40;;;4.00;;
58990;SDS011;44781;53.444;14.476;2023-09-08T12:32:28;6.30;;;3.60;;
58990;SDS011;44781;53.444;14.476;2023-09-08T12:37:25;8.00;;;3.90;;
58990;SDS011;44781;53.444;14.476;2023-09-08T12:39:56;6.90;;;3.90;;
58990;SDS011;44781;53.444;14.476;2023-09-08T12:42:23;6.90;;;3.80;;
58990;SDS011;44781;53.444;14.476;2023-09-08T12:44:55;6.90;;;4.10;;
58990;SDS011;44781;53.444;14.476;2023-09-08T12:47:22;6.20;;;4.10;;
58990;SDS011;44781;53.444;14.476;2023-09-08T12:49:50;6.70;;;4.00;;
58990;SDS011;44781;53.444;14.476;2023-09-08T12:52:18;8.10;;;4.60;;
58990;SDS011;44781;53.444;14.476;2023-09-08T12:54:45;7.60;;;4.50;;
58990;SDS011;44781;53.444;14.476;2023-09-08T12:57:12;6.90;;;4.20;;
58990;SDS011;44781;53.444;14.476;2023-09-08T12:59:39;7.40;;;4.00;;
58990;SDS011;44781;53.444;14.476;2023-09-08T13:02:06;7.40;;;3.90;;
58990;SDS011;44781;53.444;14.476;2023-09-08T13:04:33;7.10;;;4.00;;
58990;SDS011;44781;53.444;14.476;2023-09-08T13:07:00;5.70;;;3.50;;
58990;SDS011;44781;53.444;14.476;2023-09-08T13:09:28;7.20;;;3.90;;
58990;SDS011;44781;53.444;14.476;2023-09-08T13:11:55;6.50;;;3.60;;
58990;SDS011;44781;53.444;14.476;2023-09-08T13:14:30;5.20;;;3.50;;
58990;SDS011;44781;53.444;14.476;2023-09-08T13:17:43;5.50;;;3.20;;
58990;SDS011;44781;53.444;14.476;2023-09-08T13:20:10;6.10;;;3.20;;
58990;SDS011;44781;53.444;14.476;2023-09-08T13:22:38;7.00;;;3.90;;
58990;SDS011;44781;53.444;14.476;2023-09-08T13:25:08;5.90;;;3.90;;
58990;SDS011;44781;53.444;14.476;2023-09-08T13:27:35;7.40;;;3.40;;
58990;SDS011;44781;53.444;14.476;2023-09-08T13:30:10;7.80;;;3.80;;
58990;SDS011;44781;53.444;14.476;2023-09-08T13:32:39;5.70;;;3.60;;
58990;SDS011;44781;53.444;14.476;2023-09-08T13:35:06;7.00;;;4.00;;
58990;SDS011;44781;53.444;14.476;2023-09-08T13:37:35;6.60;;;3.80;;
58990;SDS011;44781;53.444;14.476;2023-09-08T13:40:04;6.50;;;3.60;;
58990;SDS011;44781;53.444;14.476;2023-09-08T13:42:32;5.90;;;3.40;;
58990;SDS011;44781;53.444;14.476;2023-09-08T13:44:59;6.20;;;3.70;;
58990;SDS011;44781;53.444;14.476;2023-09-08T13:47:27;6.70;;;3.30;;
58990;SDS011;44781;53.444;14.476;2023-09-08T13:49:54;6.70;;;3.50;;
58990;SDS011;44781;53.444;14.476;2023-09-08T13:52:22;6.30;;;3.50;;
58990;SDS011;44781;53.444;14.476;2023-09-08T13:54:50;5.80;;;3.50;;
58990;SDS011;44781;53.444;14.476;2023-09-08T13:57:17;6.00;;;3.60;;
58990;SDS011;44781;53.444;14.476;2023-09-08T13:59:46;7.40;;;3.50;;
58990;SDS011;44781;53.444;14.476;2023-09-08T14:02:14;6.90;;;3.60;;
58990;SDS011;44781;53.444;14.476;2023-09-08T14:04:41;6.20;;;3.50;;
58990;SDS011;44781;53.444;14.476;2023-09-08T14:07:09;8.60;;;4.20;;
58990;SDS011;44781;53.444;14.476;2023-09-08T14:09:36;6.10;;;3.80;;
58990;SDS011;44781;53.444;14.476;2023-09-08T14:12:03;7.00;;;4.30;;
58990;SDS011;44781;53.444;14.476;2023-09-08T14:14:31;6.20;;;4.10;;
58990;SDS011;44781;53.444;14.476;2023-09-08T14:16:59;7.10;;;4.00;;
58990;SDS011;44781;53.444;14.476;2023-09-08T14:19:26;6.00;;;3.90;;
58990;SDS011;44781;53.444;14.476;2023-09-08T14:21:57;7.30;;;4.90;;
58990;SDS011;44781;53.444;14.476;2023-09-08T14:24:24;6.60;;;4.50;;
58990;SDS011;44781;53.444;14.476;2023-09-08T14:26:54;7.30;;;4.30;;
58990;SDS011;44781;53.444;14.476;2023-09-08T14:29:23;8.00;;;4.50;;
58990;SDS011;44781;53.444;14.476;2023-09-08T14:31:59;6.80;;;4.30;;
58990;SDS011;44781;53.444;14.476;2023-09-08T14:34:26;7.40;;;4.40;;
58990;SDS011;44781;53.444;14.476;2023-09-08T14:36:54;6.30;;;4.30;;
58990;SDS011;44781;53.444;14.476;2023-09-08T14:39:22;7.90;;;4.70;;
58990;SDS011;44781;53.444;14.476;2023-09-08T14:41:49;8.00;;;4.50;;
58990;SDS011;44781;53.444;14.476;2023-09-08T14:44:19;6.70;;;4.40;;
58990;SDS011;44781;53.444;14.476;2023-09-08T14:46:52;7.80;;;4.10;;
58990;SDS011;44781;53.444;14.476;2023-09-08T14:49:21;8.00;;;4.60;;
58990;SDS011;44781;53.444;14.476;2023-09-08T14:51:48;6.90;;;4.40;;
58990;SDS011;44781;53.444;14.476;2023-09-08T14:54:16;7.50;;;4.80;;
58990;SDS011;44781;53.444;14.476;2023-09-08T14:56:46;7.40;;;4.40;;
58990;SDS011;44781;53.444;14.476;2023-09-08T14:59:14;7.70;;;4.60;;
58990;SDS011;44781;53.444;14.476;2023-09-08T15:01:41;8.00;;;4.80;;